DW8500 Weather Reports


Display with metric or nautical units.
time (UTC)temp
F
wind
direction
speed
MPH
gust
MPH
rain 1hr
in
rain 24hr
in
rain mn
in
humidity
%
barometer
mb
20220926201348 71 243 1.0 5.0 0.00 0.04 0.01 46 1003.5
20220926200336 72 121 1.0 5.0 0.00 0.04 0.01 46 1003.5
20220926195352 72 82 2.0 8.0 0.00 0.04 0.01 45 1003.4
20220926194409 72 255 1.0 4.0 0.00 0.04 0.01 45 1003.5
20220926193415 72 120 2.0 8.0 0.00 0.04 0.01 45 1003.6
20220926192349 72 225 2.0 4.0 0.00 0.04 0.01 46 1003.6
20220926191344 72 210 1.0 3.0 0.00 0.04 0.01 47 1003.8
20220926190431 72 89 3.0 16.0 0.00 0.04 0.01 44 1003.9
20220926185346 72 189 2.0 6.0 0.00 0.04 0.01 47 1003.8
20220926184437 71 268 3.0 8.0 0.00 0.04 0.01 44 1003.8
20220926183343 71 53 3.0 11.0 0.00 0.04 0.01 44 1003.6
20220926182339 71 213 2.0 6.0 0.00 0.04 0.01 47 1003.6
20220926181354 71 99 1.0 9.0 0.00 0.04 0.01 46 1003.6
20220926180341 72 188 2.0 7.0 0.00 0.04 0.01 47 1003.5
20220926175415 71 129 2.0 4.0 0.00 0.04 0.01 49 1003.6
20220926174504 71 238 1.0 7.0 0.00 0.04 0.01 49 1003.6
20220926173406 71 115 2.0 6.0 0.00 0.04 0.01 48 1003.7
20220926172436 70 186 2.0 7.0 0.00 0.04 0.01 50 1003.8
20220926171402 69 139 2.0 7.0 0.00 0.04 0.01 52 1003.8
20220926170411 70 228 2.0 6.0 0.00 0.04 0.01 49 1003.9
20220926165343 70 88 1.0 5.0 0.00 0.04 0.01 50 1003.9
20220926164416 69 150 1.0 7.0 0.00 0.04 0.01 51 1004.0
20220926163344 68 290 3.0 8.0 0.00 0.04 0.01 52 1004.0
20220926162419 68 264 2.0 7.0 0.00 0.04 0.01 53 1004.0
20220926161350 67 255 1.0 5.0 0.00 0.04 0.01 54 1004.0
20220926160357 68 255 2.0 9.0 0.00 0.04 0.01 52 1004.0
20220926155409 69 267 3.0 8.0 0.00 0.04 0.01 50 1003.9
20220926154400 69 110 2.0 6.0 0.00 0.04 0.01 52 1003.6
20220926153349 68 243 1.0 5.0 0.00 0.04 0.01 53 1003.8
20220926152428 67 36 3.0 9.0 0.00 0.04 0.01 54 1004.1
20220926151414 67 231 2.0 10.0 0.00 0.04 0.01 55 1004.2
20220926150359 67 236 1.0 7.0 0.00 0.04 0.01 56 1004.2
20220926145407 67 137 3.0 7.0 0.00 0.04 0.01 55 1003.9
20220926144355 66 267 2.0 7.0 0.00 0.04 0.01 58 1003.9
20220926143340 65 271 2.0 8.0 0.00 0.04 0.01 59 1003.9
20220926142356 65 91 4.0 9.0 0.00 0.04 0.01 59 1004.0
20220926141345 64 104 3.0 5.0 0.01 0.04 0.01 62 1004.0
20220926135357 63 50 1.0 4.0 0.01 0.04 0.01 65 1003.5
20220926134408 62 289 1.0 4.0 0.01 0.04 0.01 67 1003.6
20220926133413 62 293 1.0 5.0 0.01 0.04 0.01 68 1003.7
20220926132345 61 5 2.0 5.0 0.01 0.04 0.01 69 1003.6
20220926131358 60 118 1.0 3.0 0.00 0.03 0.00 70 1003.6
20220926130344 59 139 1.0 2.0 0.00 0.03 0.00 72 1003.5
20220926125358 59 249 1.0 2.0 0.00 0.03 0.00 73 1003.4
20220926124350 58 236 0.0 1.0 0.00 0.03 0.00 74 1003.3
20220926123356 58 236 0.0 1.0 0.00 0.03 0.00 74 1003.2
20220926122348 57 162 0.0 1.0 0.00 0.03 0.00 74 1003.5
20220926121400 57 224 0.0 2.0 0.00 0.03 0.00 74 1003.4
20220926120404 57 136 0.0 1.0 0.00 0.03 0.00 74 1003.3
20220926114408 56 255 1.0 1.0 0.00 0.03 0.00 74 1003.1
20220926113352 56 262 0.0 1.0 0.00 0.03 0.00 74 1002.8
20220926112427 57 268 0.0 2.0 0.00 0.03 0.00 74 1002.7
20220926111438 57 267 0.0 3.0 0.00 0.03 0.00 74 1002.4
20220926110340 56 231 1.0 3.0 0.00 0.03 0.00 74 1002.1
20220926105354 56 242 1.0 3.0 0.00 0.03 0.00 74 1001.9
20220926104344 56 249 1.0 2.0 0.00 0.03 0.00 74 1001.8
20220926103452 56 248 0.0 2.0 0.00 0.03 0.00 74 1001.7
20220926102422 56 224 0.0 1.0 0.00 0.03 0.00 74 1001.5
20220926101354 56 211 0.0 1.0 0.00 0.03 0.00 74 1001.4
20220926100340 56 212 0.0 1.0 0.00 0.03 0.00 74 1001.2
20220926095414 57 212 0.0 1.0 0.00 0.03 0.00 74 1001.1
20220926093423 57 210 0.0 1.0 0.00 0.03 0.00 74 1000.9
20220926092353 57 210 0.0 1.0 0.00 0.03 0.00 74 1000.8
20220926091423 57 210 0.0 1.0 0.00 0.03 0.00 74 1000.8
20220926090351 57 210 0.0 1.0 0.00 0.03 0.00 74 1000.8
20220926085404 56 207 0.0 1.0 0.00 0.03 0.00 74 1000.9
20220926084413 57 207 0.0 1.0 0.00 0.03 0.00 74 1000.9
20220926083344 56 144 0.0 1.0 0.00 0.03 0.00 74 1000.8
20220926082435 56 144 0.0 1.0 0.00 0.03 0.00 74 1000.6
20220926081406 56 144 0.0 1.0 0.00 0.03 0.00 74 1000.9
20220926080352 56 144 0.0 1.0 0.00 0.03 0.00 74 1000.9
20220926075349 56 143 0.0 0.0 0.00 0.03 0.00 74 1000.7
20220926074401 55 144 0.0 1.0 0.00 0.03 0.00 74 1000.8
20220926073408 55 143 0.0 1.0 0.00 0.03 0.00 74 1000.6
20220926072405 55 144 0.0 1.0 0.00 0.03 0.00 74 1000.6
20220926071356 56 144 0.0 0.0 0.00 0.03 0.00 74 1000.7
20220926070344 56 143 0.0 1.0 0.00 0.03 0.00 74 1000.8
20220926065359 56 143 0.0 0.0 0.00 0.03 0.00 74 1001.0
20220926064354 56 143 0.0 1.0 0.00 0.03 0.00 74 1001.3
20220926063417 56 144 0.0 0.0 0.00 0.03 0.00 74 1001.3
20220926062351 57 144 0.0 1.0 0.00 0.03 0.00 74 1001.3
20220926061342 57 144 0.0 1.0 0.00 0.03 0.00 74 1001.5
20220926060349 57 144 0.0 1.0 0.00 0.03 0.00 74 1001.6
20220926055422 57 142 0.0 2.0 0.00 0.03 0.00 74 1001.9
20220926054349 56 196 0.0 0.0 0.00 0.03 0.00 74 1002.0
20220926053354 55 197 0.0 0.0 0.00 0.03 0.00 74 1002.0
20220926052350 55 197 0.0 0.0 0.00 0.03 0.00 74 1001.8
20220926051359 55 197 0.0 0.0 0.00 0.03 0.00 74 1001.6
20220926050346 55 197 0.0 0.0 0.00 0.03 0.00 74 1001.7
20220926045339 55 197 0.0 0.0 0.00 0.03 0.00 74 1001.7
20220926044410 55 197 0.0 0.0 0.00 0.03 0.00 74 1001.7
20220926043335 55 197 0.0 0.0 0.00 0.03 0.00 74 1001.5
20220926042351 55 197 0.0 0.0 0.00 0.03 0.00 74 1001.5
20220926041342 55 197 0.0 0.0 0.00 0.03 0.00 74 1001.4
20220926040410 56 197 0.0 0.0 0.00 0.03 0.00 74 1001.4
20220926035357 56 197 0.0 1.0 0.00 0.03 0.03 74 1001.3
20220926034345 56 197 0.0 1.0 0.00 0.03 0.03 74 1001.7
20220926033412 56 197 0.0 1.0 0.00 0.03 0.03 74 1001.7
20220926032434 56 169 0.0 0.0 0.00 0.03 0.03 74 1001.7
20220926031342 56 155 0.0 0.0 0.00 0.03 0.03 74 1001.8
20220926030429 56 156 0.0 0.0 0.00 0.03 0.03 74 1001.9
20220926025423 56 156 0.0 0.0 0.00 0.03 0.03 74 1002.0
20220926024411 57 156 0.0 0.0 0.01 0.03 0.03 74 1002.0
20220926023417 57 156 0.0 0.0 0.01 0.03 0.03 74 1002.0
20220926022352 57 155 0.0 0.0 0.01 0.03 0.03 74 1002.1
20220926021358 57 156 0.0 0.0 0.01 0.03 0.03 74 1002.2
20220926020406 57 155 0.0 0.0 0.01 0.03 0.03 74 1002.1
20220926015437 56 156 0.0 0.0 0.01 0.03 0.03 74 1002.1
20220926014410 57 156 0.0 0.0 0.00 0.02 0.02 73 1002.1
20220926013433 57 156 0.0 0.0 0.00 0.02 0.02 73 1002.2
20220926011343 57 155 0.0 0.0 0.00 0.02 0.02 73 1002.3
20220926010410 57 156 0.0 0.0 0.00 0.02 0.02 73 1002.4
20220926005356 57 155 0.0 0.0 0.00 0.02 0.02 73 1002.6
20220926004404 57 155 0.0 0.0 0.00 0.02 0.02 73 1002.6
20220926003411 57 156 0.0 0.0 0.00 0.02 0.02 73 1002.7
20220926002345 58 156 0.0 0.0 0.00 0.02 0.02 73 1002.6
20220926001356 58 156 0.0 0.0 0.00 0.02 0.02 73 1002.7
20220926000406 58 156 0.0 0.0 0.00 0.02 0.02 73 1002.7
20220925235353 58 156 0.0 0.0 0.00 0.02 0.02 73 1002.7
20220925234343 58 156 0.0 0.0 0.00 0.02 0.02 73 1002.9
20220925233351 58 155 0.0 0.0 0.00 0.02 0.02 73 1003.0
20220925232345 58 156 0.0 0.0 0.00 0.02 0.02 73 1003.0
20220925231358 58 155 0.0 0.0 0.00 0.02 0.02 72 1003.0
20220925230423 58 156 0.0 0.0 0.00 0.02 0.02 72 1002.9
20220925225352 58 156 0.0 0.0 0.00 0.02 0.02 72 1003.1
20220925224343 58 155 0.0 0.0 0.00 0.02 0.02 72 1003.3
20220925223432 58 156 0.0 0.0 0.00 0.02 0.02 72 1003.5
20220925222500 58 155 0.0 0.0 0.00 0.02 0.02 72 1003.6
20220925221406 58 156 0.0 0.0 0.01 0.02 0.02 72 1003.5
20220925220430 58 155 0.0 0.0 0.01 0.02 0.02 72 1003.7
20220925215357 58 156 0.0 0.0 0.01 0.02 0.02 71 1003.8
20220925214345 59 156 0.0 0.0 0.01 0.02 0.02 71 1003.8
20220925213350 59 156 0.0 0.0 0.01 0.02 0.02 70 1003.9
20220925212345 59 156 0.0 0.0 0.01 0.02 0.02 70 1003.9
20220925211400 59 156 0.0 0.0 0.00 0.01 0.01 69 1003.9
20220925210348 59 156 0.0 0.0 0.01 0.01 0.01 69 1004.1
20220925205401 59 155 0.0 0.0 0.01 0.01 0.01 69 1004.1
20220925204354 60 156 0.0 0.0 0.01 0.01 0.01 68 1004.1
20220925203341 59 156 0.0 0.0 0.01 0.01 0.01 69 1004.2
20220925202355 60 155 0.0 0.0 0.01 0.01 0.01 69 1004.4